Time,TemperatureF,DewpointF,PressureIn,WindDirection,WindDirectionDegrees,WindSpeedMPH,WindSpeedGustMPH,Humidity,HourlyPrecipIn,Conditions,Clouds,dailyrainin,SoftwareType,DateUTC
2013-01-06 00:04:00,35.5,33.9,29.96,SSW,211,13.0,17.0,94,0.00,,,0.00,Wunderground v.1.15,2013-01-06 06:04:00,
2013-01-06 00:08:00,35.4,33.8,29.96,SW,222,13.0,17.0,94,0.00,,,0.00,Wunderground v.1.15,2013-01-06 06:08:00,
2013-01-06 00:10:00,35.4,33.8,29.96,WSW,257,14.0,14.0,94,0.00,,,0.00,Wunderground v.1.15,2013-01-06 06:10:00,
2013-01-06 00:13:00,35.4,33.8,29.96,SW,224,14.0,14.0,94,0.00,,,0.00,Wunderground v.1.15,2013-01-06 06:13:00,
2013-01-06 00:16:00,35.4,33.8,29.96,SW,221,14.0,16.0,94,0.00,,,0.00,Wunderground v.1.15,2013-01-06 06:16:00,
2013-01-06 00:18:00,35.5,33.9,29.96,SW,227,14.0,16.0,94,0.00,,,0.00,Wunderground v.1.15,2013-01-06 06:18:00,
2013-01-06 00:20:00,35.5,33.9,29.96,SW,235,13.0,15.0,94,0.00,,,0.00,Wunderground v.1.15,2013-01-06 06:20:00,
2013-01-06 00:22:00,35.5,33.7,29.96,SW,215,14.0,15.0,93,0.00,,,0.00,Wunderground v.1.15,2013-01-06 06:22:00,
2013-01-06 00:24:00,35.5,33.7,29.96,SW,217,14.0,15.0,93,0.00,,,0.00,Wunderground v.1.15,2013-01-06 06:24:00,
2013-01-06 00:30:00,35.5,33.7,29.96,WSW,248,13.0,13.0,93,0.00,,,0.00,Wunderground v.1.15,2013-01-06 06:30:00,
2013-01-06 00:32:00,35.6,33.8,29.96,SW,214,13.0,13.0,93,0.00,,,0.00,Wunderground v.1.15,2013-01-06 06:32:00,
2013-01-06 00:33:00,35.5,33.7,29.96,WSW,243,12.0,13.0,93,0.00,,,0.00,Wunderground v.1.15,2013-01-06 06:33:00,
2013-01-06 00:36:00,35.5,33.7,29.96,SW,226,12.0,13.0,93,0.00,,,0.00,Wunderground v.1.15,2013-01-06 06:36:00,
2013-01-06 00:38:00,35.5,33.7,29.96,SW,225,11.0,13.0,93,0.00,,,0.00,Wunderground v.1.15,2013-01-06 06:38:00,
2013-01-06 00:42:00,35.5,33.7,29.95,SW,235,10.0,10.0,93,0.00,,,0.00,Wunderground v.1.15,2013-01-06 06:42:00,
2013-01-06 00:50:00,35.4,33.6,29.96,SSW,211,12.0,14.0,93,0.00,,,0.00,Wunderground v.1.15,2013-01-06 06:50:00,
2013-01-06 00:54:00,35.3,33.5,29.96,WSW,245,12.0,17.0,93,0.00,,,0.00,Wunderground v.1.15,2013-01-06 06:54:00,
2013-01-06 01:00:00,34.9,32.8,29.96,WSW,247,12.0,12.0,92,0.00,,,0.00,Wunderground v.1.15,2013-01-06 07:00:00,
2013-01-06 01:01:00,34.8,32.7,29.96,WSW,242,11.0,12.0,92,0.00,,,0.00,Wunderground v.1.15,2013-01-06 07:01:00,
2013-01-06 01:06:00,34.6,32.5,29.96,WSW,249,10.0,12.0,92,0.00,,,0.00,Wunderground v.1.15,2013-01-06 07:06:00,
2013-01-06 01:08:00,34.4,32.3,29.96,WSW,238,9.0,12.0,92,0.00,,,0.00,Wunderground v.1.15,2013-01-06 07:08:00,
2013-01-06 01:10:00,34.3,32.2,29.96,West,264,9.0,12.0,92,0.00,,,0.00,Wunderground v.1.15,2013-01-06 07:10:00,
2013-01-06 01:15:00,33.8,31.5,29.96,West,264,10.0,12.0,91,0.00,,,0.00,Wunderground v.1.15,2013-01-06 07:15:00,
2013-01-06 01:18:00,33.7,31.4,29.96,SW,217,11.0,12.0,91,0.00,,,0.00,Wunderground v.1.15,2013-01-06 07:18:00,
2013-01-06 01:20:00,33.5,30.9,29.97,WSW,255,12.0,16.0,90,0.00,,,0.00,Wunderground v.1.15,2013-01-06 07:20:00,
2013-01-06 01:22:00,33.1,30.5,29.97,WSW,243,13.0,16.0,90,0.00,,,0.00,Wunderground v.1.15,2013-01-06 07:22:00,
2013-01-06 01:24:00,32.9,30.3,29.97,West,261,12.0,16.0,90,0.00,,,0.00,Wunderground v.1.15,2013-01-06 07:24:00,
2013-01-06 01:26:00,32.5,29.9,29.96,SW,215,12.0,16.0,90,0.00,,,0.00,Wunderground v.1.15,2013-01-06 07:26:00,
2013-01-06 01:28:00,32.2,29.3,29.96,WNW,297,12.0,16.0,89,0.00,,,0.00,Wunderground v.1.15,2013-01-06 07:28:00,
2013-01-06 01:30:00,32.0,29.1,29.96,WSW,250,12.0,14.0,89,0.00,,,0.00,Wunderground v.1.15,2013-01-06 07:30:00,
2013-01-06 01:34:00,31.4,28.5,29.97,WNW,302,13.0,15.0,89,0.00,,,0.00,Wunderground v.1.15,2013-01-06 07:34:00,
2013-01-06 01:38:00,30.7,27.6,29.97,West,276,13.0,15.0,88,0.00,,,0.00,Wunderground v.1.15,2013-01-06 07:38:00,
2013-01-06 01:44:00,30.2,27.3,29.97,West,273,11.0,13.0,89,0.00,,,0.00,Wunderground v.1.15,2013-01-06 07:44:00,
2013-01-06 01:46:00,30.0,26.6,29.97,SW,225,11.0,13.0,87,0.00,,,0.00,Wunderground v.1.15,2013-01-06 07:46:00,
2013-01-06 01:50:00,29.4,25.7,29.97,WSW,245,12.0,18.0,86,0.00,,,0.00,Wunderground v.1.15,2013-01-06 07:50:00,
2013-01-06 01:52:00,29.2,25.5,29.97,WSW,248,13.0,18.0,86,0.00,,,0.00,Wunderground v.1.15,2013-01-06 07:52:00,
2013-01-06 01:56:00,28.7,25.0,29.98,West,281,13.0,18.0,86,0.00,,,0.00,Wunderground v.1.15,2013-01-06 07:56:00,
2013-01-06 01:59:00,28.4,25.0,29.98,West,273,13.0,19.0,87,0.00,,,0.00,Wunderground v.1.15,2013-01-06 07:59:00,
2013-01-06 02:02:00,28.3,24.9,29.98,WSW,257,12.0,19.0,87,0.00,,,0.00,Wunderground v.1.15,2013-01-06 08:02:00,
2013-01-06 02:04:00,28.2,24.6,29.98,West,281,12.0,19.0,86,0.00,,,0.00,Wunderground v.1.15,2013-01-06 08:04:00,
2013-01-06 02:08:00,28.0,24.6,29.99,West,273,13.0,19.0,87,0.00,,,0.00,Wunderground v.1.15,2013-01-06 08:08:00,
2013-01-06 02:10:00,28.0,24.6,29.99,West,264,13.0,13.0,87,0.00,,,0.00,Wunderground v.1.15,2013-01-06 08:10:00,
2013-01-06 02:12:00,27.9,24.8,29.99,WSW,241,12.0,17.0,88,0.00,,,0.00,Wunderground v.1.15,2013-01-06 08:12:00,
2013-01-06 02:16:00,27.8,24.4,29.99,WSW,248,12.0,17.0,87,0.00,,,0.00,Wunderground v.1.15,2013-01-06 08:16:00,
2013-01-06 02:18:00,27.7,24.1,29.99,WSW,248,12.0,17.0,86,0.00,,,0.00,Wunderground v.1.15,2013-01-06 08:18:00,
2013-01-06 02:21:00,27.5,24.1,29.99,SSW,197,12.0,12.0,87,0.00,,,0.00,Wunderground v.1.15,2013-01-06 08:21:00,
2013-01-06 02:24:00,27.4,24.3,29.99,WSW,245,12.0,12.0,88,0.00,,,0.00,Wunderground v.1.15,2013-01-06 08:24:00,
2013-01-06 02:30:00,27.3,24.2,29.99,West,259,11.0,11.0,88,0.00,,,0.00,Wunderground v.1.15,2013-01-06 08:30:00,
2013-01-06 02:32:00,27.2,24.1,29.99,WSW,250,12.0,13.0,88,0.00,,,0.00,Wunderground v.1.15,2013-01-06 08:32:00,
2013-01-06 02:34:00,27.3,24.2,30.00,West,278,12.0,14.0,88,0.00,,,0.00,Wunderground v.1.15,2013-01-06 08:34:00,
2013-01-06 02:35:00,27.2,24.4,30.00,WSW,242,12.0,14.0,89,0.00,,,0.00,Wunderground v.1.15,2013-01-06 08:35:00,
2013-01-06 02:38:00,27.1,24.3,30.00,West,279,12.0,14.0,89,0.00,,,0.00,Wunderground v.1.15,2013-01-06 08:38:00,
2013-01-06 02:40:00,27.0,24.2,30.00,WNW,288,12.0,12.0,89,0.00,,,0.00,Wunderground v.1.15,2013-01-06 08:40:00,
2013-01-06 02:44:00,26.9,23.8,30.00,WNW,297,12.0,14.0,88,0.00,,,0.00,Wunderground v.1.15,2013-01-06 08:44:00,
2013-01-06 02:46:00,26.8,23.7,30.00,West,278,12.0,14.0,88,0.00,,,0.00,Wunderground v.1.15,2013-01-06 08:46:00,
2013-01-06 02:48:00,26.7,23.6,30.00,WNW,290,12.0,14.0,88,0.00,,,0.00,Wunderground v.1.15,2013-01-06 08:48:00,
2013-01-06 02:52:00,26.5,23.2,30.00,West,263,12.0,12.0,87,0.00,,,0.00,Wunderground v.1.15,2013-01-06 08:52:00,
2013-01-06 02:54:00,26.4,23.3,30.00,WSW,245,11.0,12.0,88,0.00,,,0.00,Wunderground v.1.15,2013-01-06 08:54:00,
2013-01-06 02:56:00,26.4,23.3,30.00,West,278,11.0,12.0,88,0.00,,,0.00,Wunderground v.1.15,2013-01-06 08:56:00,
2013-01-06 02:58:00,26.3,23.2,30.00,WSW,256,11.0,12.0,88,0.00,,,0.00,Wunderground v.1.15,2013-01-06 08:58:00,
2013-01-06 03:03:00,26.2,22.9,30.00,SW,222,12.0,12.0,87,0.00,,,0.00,Wunderground v.1.15,2013-01-06 09:03:00,
2013-01-06 03:08:00,26.1,23.0,30.00,SW,226,11.0,12.0,88,0.00,,,0.00,Wunderground v.1.15,2013-01-06 09:08:00,
2013-01-06 03:14:00,25.9,22.6,29.99,SW,232,10.0,15.0,87,0.00,,,0.00,Wunderground v.1.15,2013-01-06 09:14:00,
2013-01-06 03:16:00,25.8,22.5,29.99,WSW,240,11.0,15.0,87,0.00,,,0.00,Wunderground v.1.15,2013-01-06 09:16:00,
2013-01-06 03:22:00,25.5,22.4,29.99,WSW,245,11.0,11.0,88,0.00,,,0.00,Wunderground v.1.15,2013-01-06 09:22:00,
2013-01-06 03:23:00,25.4,22.3,30.00,SW,231,11.0,11.0,88,0.00,,,0.00,Wunderground v.1.15,2013-01-06 09:23:00,
2013-01-06 03:28:00,25.1,22.0,30.00,SW,228,10.0,11.0,88,0.00,,,0.00,Wunderground v.1.15,2013-01-06 09:28:00,
2013-01-06 03:32:00,25.0,21.9,30.00,SW,226,10.0,11.0,88,0.00,,,0.00,Wunderground v.1.15,2013-01-06 09:32:00,
2013-01-06 03:34:00,25.0,21.9,30.00,WSW,255,10.0,11.0,88,0.00,,,0.00,Wunderground v.1.15,2013-01-06 09:34:00,
2013-01-06 03:35:00,24.9,21.8,30.00,WSW,257,11.0,14.0,88,0.00,,,0.00,Wunderground v.1.15,2013-01-06 09:35:00,
2013-01-06 03:38:00,24.8,21.8,30.00,West,275,11.0,14.0,88,0.00,,,0.00,Wunderground v.1.15,2013-01-06 09:38:00,
2013-01-06 03:42:00,24.7,21.4,30.00,West,273,12.0,14.0,87,0.00,,,0.00,Wunderground v.1.15,2013-01-06 09:42:00,
2013-01-06 03:44:00,24.6,21.3,30.00,WNW,283,12.0,14.0,87,0.00,,,0.00,Wunderground v.1.15,2013-01-06 09:44:00,
2013-01-06 03:48:00,24.4,21.4,30.01,WNW,303,11.0,14.0,88,0.00,,,0.00,Wunderground v.1.15,2013-01-06 09:48:00,
2013-01-06 03:50:00,24.4,21.4,30.01,West,277,11.0,13.0,88,0.00,,,0.00,Wunderground v.1.15,2013-01-06 09:50:00,
2013-01-06 03:52:00,24.3,21.3,30.01,SSW,201,11.0,13.0,88,0.00,,,0.00,Wunderground v.1.15,2013-01-06 09:52:00,
2013-01-06 03:58:00,24.1,20.8,30.01,West,273,12.0,16.0,87,0.00,,,0.00,Wunderground v.1.15,2013-01-06 09:58:00,
2013-01-06 04:02:00,24.0,20.7,30.01,West,269,12.0,13.0,87,0.00,,,0.00,Wunderground v.1.15,2013-01-06 10:02:00,
2013-01-06 04:03:00,23.9,20.6,30.01,SW,236,12.0,13.0,87,0.00,,,0.00,Wunderground v.1.15,2013-01-06 10:03:00,
2013-01-06 04:08:00,23.8,20.5,30.01,SW,219,11.0,17.0,87,0.00,,,0.00,Wunderground v.1.15,2013-01-06 10:08:00,
2013-01-06 04:12:00,23.7,20.7,30.02,West,266,11.0,11.0,88,0.00,,,0.00,Wunderground v.1.15,2013-01-06 10:12:00,
2013-01-06 04:14:00,23.6,20.6,30.02,WNW,286,11.0,16.0,88,0.00,,,0.00,Wunderground v.1.15,2013-01-06 10:14:00,
2013-01-06 04:16:00,23.6,20.6,30.02,WNW,284,11.0,16.0,88,0.00,,,0.00,Wunderground v.1.15,2013-01-06 10:16:00,
2013-01-06 04:18:00,23.5,20.2,30.02,WNW,300,11.0,16.0,87,0.00,,,0.00,Wunderground v.1.15,2013-01-06 10:18:00,
2013-01-06 04:19:00,23.4,19.8,30.02,WSW,240,12.0,16.0,86,0.00,,,0.00,Wunderground v.1.15,2013-01-06 10:19:00,
2013-01-06 04:22:00,23.2,19.6,30.02,West,275,12.0,16.0,86,0.00,,,0.00,Wunderground v.1.15,2013-01-06 10:22:00,
2013-01-06 04:28:00,22.7,19.1,30.02,West,279,12.0,18.0,86,0.00,,,0.00,Wunderground v.1.15,2013-01-06 10:28:00,
2013-01-06 04:34:00,22.4,19.1,30.03,West,281,12.0,15.0,87,0.00,,,0.00,Wunderground v.1.15,2013-01-06 10:34:00,
2013-01-06 04:36:00,22.4,19.1,30.03,WSW,249,12.0,15.0,87,0.00,,,0.00,Wunderground v.1.15,2013-01-06 10:36:00,
2013-01-06 04:39:00,22.3,19.0,30.03,West,270,13.0,13.0,87,0.00,,,0.00,Wunderground v.1.15,2013-01-06 10:39:00,
2013-01-06 04:44:00,22.2,18.9,30.02,West,271,13.0,13.0,87,0.00,,,0.00,Wunderground v.1.15,2013-01-06 10:44:00,
2013-01-06 04:46:00,22.1,18.6,30.03,WNW,300,13.0,13.0,86,0.00,,,0.00,Wunderground v.1.15,2013-01-06 10:46:00,
2013-01-06 04:50:00,21.9,18.4,30.03,WNW,284,13.0,16.0,86,0.00,,,0.00,Wunderground v.1.15,2013-01-06 10:50:00,
2013-01-06 04:56:00,21.6,18.3,30.03,WNW,288,11.0,16.0,87,0.00,,,0.00,Wunderground v.1.15,2013-01-06 10:56:00,
2013-01-06 05:00:00,21.5,18.2,30.04,West,274,10.0,10.0,87,0.00,,,0.00,Wunderground v.1.15,2013-01-06 11:00:00,
2013-01-06 05:01:00,21.5,18.2,30.04,West,270,10.0,10.0,87,0.00,,,0.00,Wunderground v.1.15,2013-01-06 11:01:00,
2013-01-06 05:04:00,21.4,18.1,30.03,WSW,246,9.0,10.0,87,0.00,,,0.00,Wunderground v.1.15,2013-01-06 11:04:00,
2013-01-06 05:06:00,21.3,18.0,30.04,NW,305,10.0,11.0,87,0.00,,,0.00,Wunderground v.1.15,2013-01-06 11:06:00,
2013-01-06 05:10:00,21.2,17.9,30.03,WNW,284,11.0,13.0,87,0.00,,,0.00,Wunderground v.1.15,2013-01-06 11:10:00,
2013-01-06 05:12:00,21.1,17.8,30.03,West,273,11.0,13.0,87,0.00,,,0.00,Wunderground v.1.15,2013-01-06 11:12:00,
2013-01-06 05:18:00,20.9,17.9,30.04,West,281,11.0,13.0,88,0.00,,,0.00,Wunderground v.1.15,2013-01-06 11:18:00,
2013-01-06 05:19:00,20.9,17.6,30.04,WNW,288,11.0,16.0,87,0.00,,,0.00,Wunderground v.1.15,2013-01-06 11:19:00,
2013-01-06 05:24:00,20.8,17.5,30.04,West,281,11.0,16.0,87,0.00,,,0.00,Wunderground v.1.15,2013-01-06 11:24:00,
2013-01-06 05:30:00,20.5,17.5,30.04,West,276,9.0,14.0,88,0.00,,,0.00,Wunderground v.1.15,2013-01-06 11:30:00,
2013-01-06 05:32:00,20.4,17.1,30.05,West,269,9.0,14.0,87,0.00,,,0.00,Wunderground v.1.15,2013-01-06 11:32:00,
2013-01-06 05:36:00,20.2,17.0,30.04,West,274,9.0,14.0,87,0.00,,,0.00,Wunderground v.1.15,2013-01-06 11:36:00,
2013-01-06 05:38:00,20.1,17.1,30.05,WNW,295,9.0,14.0,88,0.00,,,0.00,Wunderground v.1.15,2013-01-06 11:38:00,
2013-01-06 05:44:00,20.0,16.8,30.05,WSW,256,10.0,15.0,87,0.00,,,0.00,Wunderground v.1.15,2013-01-06 11:44:00,
2013-01-06 05:45:00,19.9,16.9,30.05,West,260,10.0,15.0,88,0.00,,,0.00,Wunderground v.1.15,2013-01-06 11:45:00,
2013-01-06 05:48:00,19.9,16.9,30.05,WNW,295,10.0,15.0,88,0.00,,,0.00,Wunderground v.1.15,2013-01-06 11:48:00,
2013-01-06 05:54:00,19.8,16.8,30.05,West,266,9.0,10.0,88,0.00,,,0.00,Wunderground v.1.15,2013-01-06 11:54:00,
2013-01-06 05:58:00,19.7,16.7,30.06,West,264,8.0,13.0,88,0.00,,,0.00,Wunderground v.1.15,2013-01-06 11:58:00,
2013-01-06 06:00:00,19.7,16.7,30.05,WNW,291,9.0,9.0,88,0.00,,,0.00,Wunderground v.1.15,2013-01-06 12:00:00,
2013-01-06 06:04:00,19.6,16.6,30.06,West,269,9.0,9.0,88,0.00,,,0.00,Wunderground v.1.15,2013-01-06 12:04:00,
2013-01-06 06:06:00,19.6,16.6,30.06,WNW,285,9.0,12.0,88,0.00,,,0.00,Wunderground v.1.15,2013-01-06 12:06:00,
2013-01-06 06:12:00,19.4,16.4,30.06,West,259,10.0,11.0,88,0.00,,,0.00,Wunderground v.1.15,2013-01-06 12:12:00,
2013-01-06 06:14:00,19.4,16.4,30.06,West,277,10.0,11.0,88,0.00,,,0.00,Wunderground v.1.15,2013-01-06 12:14:00,
2013-01-06 06:16:00,19.3,16.3,30.06,WNW,300,10.0,11.0,88,0.00,,,0.00,Wunderground v.1.15,2013-01-06 12:16:00,
2013-01-06 06:20:00,19.3,16.3,30.07,WNW,293,9.0,9.0,88,0.00,,,0.00,Wunderground v.1.15,2013-01-06 12:20:00,
2013-01-06 06:22:00,19.2,16.2,30.06,WNW,288,9.0,9.0,88,0.00,,,0.00,Wunderground v.1.15,2013-01-06 12:22:00,
2013-01-06 06:28:00,19.0,16.3,30.07,WNW,284,8.0,10.0,89,0.00,,,0.00,Wunderground v.1.15,2013-01-06 12:28:00,
2013-01-06 06:30:00,19.0,16.3,30.07,WNW,293,8.0,11.0,89,0.00,,,0.00,Wunderground v.1.15,2013-01-06 12:30:00,
2013-01-06 06:32:00,19.0,16.0,30.07,West,278,9.0,11.0,88,0.00,,,0.00,Wunderground v.1.15,2013-01-06 12:32:00,
2013-01-06 06:38:00,18.9,15.9,30.07,WNW,289,10.0,11.0,88,0.00,,,0.00,Wunderground v.1.15,2013-01-06 12:38:00,
2013-01-06 06:40:00,18.9,15.9,30.07,West,267,10.0,10.0,88,0.00,,,0.00,Wunderground v.1.15,2013-01-06 12:40:00,
2013-01-06 06:44:00,18.8,16.1,30.07,WNW,294,9.0,11.0,89,0.00,,,0.00,Wunderground v.1.15,2013-01-06 12:44:00,
2013-01-06 06:50:00,18.8,15.8,30.07,WNW,285,9.0,9.0,88,0.00,,,0.00,Wunderground v.1.15,2013-01-06 12:50:00,
2013-01-06 06:54:00,18.7,15.7,30.08,NW,304,9.0,11.0,88,0.00,,,0.00,Wunderground v.1.15,2013-01-06 12:54:00,
2013-01-06 06:56:00,18.7,15.7,30.08,West,267,9.0,11.0,88,0.00,,,0.00,Wunderground v.1.15,2013-01-06 12:56:00,
2013-01-06 07:00:00,18.7,15.7,30.08,WNW,291,10.0,10.0,88,0.00,,,0.00,Wunderground v.1.15,2013-01-06 13:00:00,
2013-01-06 07:03:00,18.6,15.6,30.08,West,278,11.0,15.0,88,0.00,,,0.00,Wunderground v.1.15,2013-01-06 13:03:00,
2013-01-06 07:05:00,18.5,15.5,30.08,WNW,295,11.0,15.0,88,0.00,,,0.00,Wunderground v.1.15,2013-01-06 13:05:00,
2013-01-06 07:08:00,18.4,15.4,30.08,WNW,297,11.0,15.0,88,0.00,,,0.00,Wunderground v.1.15,2013-01-06 13:08:00,
2013-01-06 07:14:00,18.3,15.3,30.08,WNW,290,11.0,11.0,88,0.00,,,0.00,Wunderground v.1.15,2013-01-06 13:14:00,
2013-01-06 07:16:00,18.3,15.3,30.08,WNW,285,10.0,11.0,88,0.00,,,0.00,Wunderground v.1.15,2013-01-06 13:16:00,
2013-01-06 07:18:00,18.2,15.2,30.09,West,263,10.0,11.0,88,0.00,,,0.00,Wunderground v.1.15,2013-01-06 13:18:00,
2013-01-06 07:21:00,18.2,15.2,30.09,WNW,285,9.0,9.0,88,0.00,,,0.00,Wunderground v.1.15,2013-01-06 13:21:00,
2013-01-06 07:24:00,18.1,15.1,30.09,West,275,9.0,9.0,88,0.00,,,0.00,Wunderground v.1.15,2013-01-06 13:24:00,
2013-01-06 07:28:00,18.1,15.4,30.09,West,266,9.0,9.0,89,0.00,,,0.00,Wunderground v.1.15,2013-01-06 13:28:00,
2013-01-06 07:30:00,18.1,15.4,30.09,West,269,8.0,8.0,89,0.00,,,0.00,Wunderground v.1.15,2013-01-06 13:30:00,
2013-01-06 07:33:00,18.0,15.3,30.09,WNW,282,7.0,8.0,89,0.00,,,0.00,Wunderground v.1.15,2013-01-06 13:33:00,
2013-01-06 07:36:00,18.0,15.3,30.09,WNW,293,7.0,8.0,89,0.00,,,0.00,Wunderground v.1.15,2013-01-06 13:36:00,
2013-01-06 07:38:00,18.1,15.4,30.10,WSW,245,8.0,9.0,89,0.00,,,0.00,Wunderground v.1.15,2013-01-06 13:38:00,
2013-01-06 07:42:00,18.2,15.5,30.10,West,278,9.0,10.0,89,0.00,,,0.00,Wunderground v.1.15,2013-01-06 13:42:00,
2013-01-06 07:48:00,18.2,15.5,30.10,West,275,9.0,10.0,89,0.00,,,0.00,Wunderground v.1.15,2013-01-06 13:48:00,
2013-01-06 07:50:00,18.2,15.5,30.10,WNW,293,8.0,8.0,89,0.00,,,0.00,Wunderground v.1.15,2013-01-06 13:50:00,
2013-01-06 07:52:00,18.2,15.5,30.11,WNW,291,8.0,8.0,89,0.00,,,0.00,Wunderground v.1.15,2013-01-06 13:52:00,
2013-01-06 07:58:00,18.2,15.5,30.11,NW,312,8.0,12.0,89,0.00,,,0.00,Wunderground v.1.15,2013-01-06 13:58:00,
2013-01-06 08:04:00,18.1,15.1,30.12,West,278,11.0,15.0,88,0.00,,,0.00,Wunderground v.1.15,2013-01-06 14:04:00,
2013-01-06 08:06:00,18.1,15.1,30.12,West,281,11.0,15.0,88,0.00,,,0.00,Wunderground v.1.15,2013-01-06 14:06:00,
2013-01-06 08:08:00,18.0,15.0,30.12,West,278,12.0,15.0,88,0.00,,,0.00,Wunderground v.1.15,2013-01-06 14:08:00,
2013-01-06 08:10:00,17.9,14.9,30.12,West,267,11.0,13.0,88,0.00,,,0.00,Wunderground v.1.15,2013-01-06 14:10:00,
2013-01-06 08:12:00,17.9,14.9,30.12,WNW,284,11.0,13.0,88,0.00,,,0.00,Wunderground v.1.15,2013-01-06 14:12:00,
2013-01-06 08:18:00,17.8,14.8,30.12,West,276,11.0,14.0,88,0.00,,,0.00,Wunderground v.1.15,2013-01-06 14:18:00,
2013-01-06 08:19:00,17.8,14.8,30.12,WSW,252,12.0,12.0,88,0.00,,,0.00,Wunderground v.1.15,2013-01-06 14:19:00,
2013-01-06 08:21:00,17.8,14.8,30.13,WNW,288,12.0,12.0,88,0.00,,,0.00,Wunderground v.1.15,2013-01-06 14:21:00,
2013-01-06 08:28:00,17.8,14.8,30.13,WNW,286,12.0,19.0,88,0.00,,,0.00,Wunderground v.1.15,2013-01-06 14:28:00,
2013-01-06 08:32:00,17.8,14.8,30.13,WNW,290,12.0,12.0,88,0.00,,,0.00,Wunderground v.1.15,2013-01-06 14:32:00,
2013-01-06 08:34:00,17.8,14.8,30.13,WNW,284,12.0,12.0,88,0.00,,,0.00,Wunderground v.1.15,2013-01-06 14:34:00,
2013-01-06 08:38:00,17.9,14.9,30.13,WNW,301,12.0,15.0,88,0.00,,,0.00,Wunderground v.1.15,2013-01-06 14:38:00,
2013-01-06 08:44:00,18.1,15.1,30.14,West,281,11.0,13.0,88,0.00,,,0.00,Wunderground v.1.15,2013-01-06 14:44:00,
2013-01-06 08:48:00,18.4,15.7,30.14,WSW,252,11.0,13.0,89,0.00,,,0.00,Wunderground v.1.15,2013-01-06 14:48:00,
2013-01-06 08:50:00,18.5,15.8,30.14,West,259,11.0,11.0,89,0.00,,,0.00,Wunderground v.1.15,2013-01-06 14:50:00,
2013-01-06 08:53:00,18.8,16.1,30.14,WNW,301,10.0,11.0,89,0.00,,,0.00,Wunderground v.1.15,2013-01-06 14:53:00,
2013-01-06 08:56:00,19.0,16.3,30.14,WNW,293,10.0,14.0,89,0.00,,,0.00,Wunderground v.1.15,2013-01-06 14:56:00,
2013-01-06 08:58:00,19.0,16.0,30.14,NW,311,11.0,14.0,88,0.00,,,0.00,Wunderground v.1.15,2013-01-06 14:58:00,
2013-01-06 09:00:00,19.0,16.0,30.15,NW,324,12.0,12.0,88,0.00,,,0.00,Wunderground v.1.15,2013-01-06 15:00:00,
2013-01-06 09:04:00,19.3,16.3,30.15,NW,309,12.0,14.0,88,0.00,,,0.00,Wunderground v.1.15,2013-01-06 15:04:00,
2013-01-06 09:06:00,19.4,16.7,30.15,WNW,293,13.0,18.0,89,0.00,,,0.00,Wunderground v.1.15,2013-01-06 15:06:00,
2013-01-06 09:10:00,19.5,16.8,30.15,WNW,297,13.0,13.0,89,0.00,,,0.00,Wunderground v.1.15,2013-01-06 15:10:00,
2013-01-06 09:12:00,19.7,17.0,30.15,West,262,13.0,13.0,89,0.00,,,0.00,Wunderground v.1.15,2013-01-06 15:12:00,
2013-01-06 09:16:00,20.0,17.0,30.14,WNW,295,13.0,17.0,88,0.00,,,0.00,Wunderground v.1.15,2013-01-06 15:16:00,
2013-01-06 09:18:00,20.2,17.2,30.15,WNW,297,13.0,17.0,88,0.00,,,0.00,Wunderground v.1.15,2013-01-06 15:18:00,
2013-01-06 09:20:00,20.2,17.2,30.15,WNW,295,13.0,13.0,88,0.00,,,0.00,Wunderground v.1.15,2013-01-06 15:20:00,
2013-01-06 09:24:00,20.4,17.4,30.15,West,280,13.0,14.0,88,0.00,,,0.00,Wunderground v.1.15,2013-01-06 15:24:00,
2013-01-06 09:26:00,20.5,17.5,30.15,NW,307,13.0,16.0,88,0.00,,,0.00,Wunderground v.1.15,2013-01-06 15:26:00,
2013-01-06 09:30:00,20.6,17.6,30.16,WNW,290,12.0,14.0,88,0.00,,,0.00,Wunderground v.1.15,2013-01-06 15:30:00,
2013-01-06 09:32:00,20.7,17.7,30.16,West,266,12.0,14.0,88,0.00,,,0.00,Wunderground v.1.15,2013-01-06 15:32:00,
2013-01-06 09:35:00,20.9,17.9,30.16,NW,304,13.0,14.0,88,0.00,,,0.00,Wunderground v.1.15,2013-01-06 15:35:00,
2013-01-06 09:38:00,21.0,18.0,30.16,West,271,12.0,14.0,88,0.00,,,0.00,Wunderground v.1.15,2013-01-06 15:38:00,
2013-01-06 09:42:00,21.4,18.7,30.16,West,271,12.0,13.0,89,0.00,,,0.00,Wunderground v.1.15,2013-01-06 15:42:00,
2013-01-06 09:44:00,21.6,18.6,30.16,NW,314,12.0,13.0,88,0.00,,,0.00,Wunderground v.1.15,2013-01-06 15:44:00,
2013-01-06 09:46:00,21.8,19.1,30.17,WNW,291,11.0,13.0,89,0.00,,,0.00,Wunderground v.1.15,2013-01-06 15:46:00,
2013-01-06 09:48:00,21.9,18.9,30.17,West,279,11.0,16.0,88,0.00,,,0.00,Wunderground v.1.15,2013-01-06 15:48:00,
2013-01-06 09:52:00,22.3,19.6,30.17,West,281,11.0,14.0,89,0.00,,,0.00,Wunderground v.1.15,2013-01-06 15:52:00,
2013-01-06 09:54:00,22.5,19.7,30.17,NW,307,12.0,14.0,89,0.00,,,0.00,Wunderground v.1.15,2013-01-06 15:54:00,
2013-01-06 09:58:00,22.6,19.8,30.17,NW,316,12.0,14.0,89,0.00,,,0.00,Wunderground v.1.15,2013-01-06 15:58:00,
2013-01-06 10:00:00,22.8,19.8,30.17,West,270,12.0,12.0,88,0.00,,,0.00,Wunderground v.1.15,2013-01-06 16:00:00,
2013-01-06 10:06:00,22.7,19.7,30.18,WNW,285,12.0,14.0,88,0.00,,,0.00,Wunderground v.1.15,2013-01-06 16:06:00,
2013-01-06 10:08:00,22.5,19.5,30.18,West,270,12.0,14.0,88,0.00,,,0.00,Wunderground v.1.15,2013-01-06 16:08:00,
2013-01-06 10:11:00,22.5,19.7,30.18,WNW,282,11.0,14.0,89,0.00,,,0.00,Wunderground v.1.15,2013-01-06 16:11:00,
2013-01-06 10:14:00,22.4,19.4,30.18,West,263,11.0,14.0,88,0.00,,,0.00,Wunderground v.1.15,2013-01-06 16:14:00,
2013-01-06 10:16:00,22.4,19.4,30.18,West,276,11.0,14.0,88,0.00,,,0.00,Wunderground v.1.15,2013-01-06 16:16:00,
2013-01-06 10:18:00,22.4,19.4,30.18,WNW,282,12.0,14.0,88,0.00,,,0.00,Wunderground v.1.15,2013-01-06 16:18:00,
2013-01-06 10:24:00,22.4,19.4,30.18,West,278,12.0,14.0,88,0.00,,,0.00,Wunderground v.1.15,2013-01-06 16:24:00,
2013-01-06 10:28:00,22.5,19.5,30.19,WNW,302,12.0,14.0,88,0.00,,,0.00,Wunderground v.1.15,2013-01-06 16:28:00,
2013-01-06 10:30:00,22.6,19.6,30.19,NW,304,11.0,11.0,88,0.00,,,0.00,Wunderground v.1.15,2013-01-06 16:30:00,
2013-01-06 10:34:00,22.7,19.7,30.19,WNW,300,11.0,16.0,88,0.00,,,0.00,Wunderground v.1.15,2013-01-06 16:34:00,
2013-01-06 10:38:00,22.8,19.5,30.19,West,264,12.0,16.0,87,0.00,,,0.00,Wunderground v.1.15,2013-01-06 16:38:00,
2013-01-06 10:40:00,22.9,19.9,30.19,NW,323,12.0,12.0,88,0.00,,,0.00,Wunderground v.1.15,2013-01-06 16:40:00,
2013-01-06 10:44:00,23.2,20.2,30.19,West,274,12.0,13.0,88,0.00,,,0.00,Wunderground v.1.15,2013-01-06 16:44:00,
2013-01-06 10:48:00,23.4,20.4,30.18,West,280,11.0,13.0,88,0.00,,,0.00,Wunderground v.1.15,2013-01-06 16:48:00,
2013-01-06 10:52:00,23.7,20.7,30.18,WNW,302,10.0,11.0,88,0.00,,,0.00,Wunderground v.1.15,2013-01-06 16:52:00,
2013-01-06 10:54:00,23.9,20.9,30.19,WNW,300,11.0,14.0,88,0.00,,,0.00,Wunderground v.1.15,2013-01-06 16:54:00,
2013-01-06 10:58:00,24.3,21.3,30.19,WNW,282,11.0,15.0,88,0.00,,,0.00,Wunderground v.1.15,2013-01-06 16:58:00,
2013-01-06 11:02:00,24.6,21.6,30.19,WNW,293,13.0,16.0,88,0.00,,,0.00,Wunderground v.1.15,2013-01-06 17:02:00,
2013-01-06 11:04:00,25.0,21.9,30.19,NW,311,13.0,16.0,88,0.00,,,0.00,Wunderground v.1.15,2013-01-06 17:04:00,
2013-01-06 11:08:00,25.0,21.4,30.19,NW,304,14.0,19.0,86,0.00,,,0.00,Wunderground v.1.15,2013-01-06 17:08:00,
2013-01-06 11:13:00,25.4,22.1,30.19,West,274,14.0,19.0,87,0.00,,,0.00,Wunderground v.1.15,2013-01-06 17:13:00,
2013-01-06 11:16:00,25.4,21.5,30.20,WNW,290,14.0,19.0,85,0.00,,,0.00,Wunderground v.1.15,2013-01-06 17:16:00,
2013-01-06 11:18:00,25.3,21.4,30.20,WNW,297,14.0,19.0,85,0.00,,,0.00,Wunderground v.1.15,2013-01-06 17:18:00,
2013-01-06 11:20:00,25.4,21.8,30.20,West,278,14.0,18.0,86,0.00,,,0.00,Wunderground v.1.15,2013-01-06 17:20:00,
2013-01-06 11:22:00,25.4,21.5,30.20,WNW,290,14.0,19.0,85,0.00,,,0.00,Wunderground v.1.15,2013-01-06 17:22:00,
2013-01-06 11:26:00,25.3,21.4,30.20,West,278,15.0,19.0,85,0.00,,,0.00,Wunderground v.1.15,2013-01-06 17:26:00,
2013-01-06 11:28:00,25.4,21.5,30.20,WNW,297,15.0,19.0,85,0.00,,,0.00,Wunderground v.1.15,2013-01-06 17:28:00,
2013-01-06 11:30:00,25.6,22.0,30.20,WNW,302,14.0,14.0,86,0.00,,,0.00,Wunderground v.1.15,2013-01-06 17:30:00,
2013-01-06 11:36:00,25.7,21.8,30.20,West,281,14.0,17.0,85,0.00,,,0.00,Wunderground v.1.15,2013-01-06 17:36:00,
2013-01-06 11:38:00,25.8,21.9,30.20,NW,304,14.0,17.0,85,0.00,,,0.00,Wunderground v.1.15,2013-01-06 17:38:00,
2013-01-06 11:40:00,25.7,21.5,30.20,WNW,291,15.0,15.0,84,0.00,,,0.00,Wunderground v.1.15,2013-01-06 17:40:00,
2013-01-06 11:42:00,25.6,21.4,30.20,WNW,293,15.0,15.0,84,0.00,,,0.00,Wunderground v.1.15,2013-01-06 17:42:00,
2013-01-06 11:46:00,25.5,21.6,30.20,NW,309,15.0,20.0,85,0.00,,,0.00,Wunderground v.1.15,2013-01-06 17:46:00,
2013-01-06 11:48:00,25.5,21.6,30.20,WNW,300,15.0,20.0,85,0.00,,,0.00,Wunderground v.1.15,2013-01-06 17:48:00,
2013-01-06 11:52:00,25.8,21.9,30.20,WNW,300,14.0,15.0,85,0.00,,,0.00,Wunderground v.1.15,2013-01-06 17:52:00,
2013-01-06 11:54:00,25.9,22.0,30.20,NNW,340,14.0,15.0,85,0.00,,,0.00,Wunderground v.1.15,2013-01-06 17:54:00,
2013-01-06 12:00:00,26.1,22.2,30.20,NW,307,12.0,12.0,85,0.00,,,0.00,Wunderground v.1.15,2013-01-06 18:00:00,
2013-01-06 12:02:00,26.2,22.0,30.20,WNW,295,12.0,12.0,84,0.00,,,0.00,Wunderground v.1.15,2013-01-06 18:02:00,
2013-01-06 12:08:00,26.7,22.2,30.20,WNW,287,12.0,14.0,83,0.00,,,0.00,Wunderground v.1.15,2013-01-06 18:08:00,
2013-01-06 12:10:00,26.9,23.0,30.20,WNW,283,11.0,15.0,85,0.00,,,0.00,Wunderground v.1.15,2013-01-06 18:10:00,
2013-01-06 12:14:00,27.0,22.8,30.20,NNW,334,11.0,15.0,84,0.00,,,0.00,Wunderground v.1.15,2013-01-06 18:14:00,
2013-01-06 12:18:00,27.1,22.6,30.20,NW,307,11.0,16.0,83,0.00,,,0.00,Wunderground v.1.15,2013-01-06 18:18:00,
2013-01-06 12:20:00,26.9,22.1,30.20,WNW,298,12.0,16.0,82,0.00,,,0.00,Wunderground v.1.15,2013-01-06 18:20:00,
2013-01-06 12:21:00,26.8,22.3,30.20,WNW,297,12.0,16.0,83,0.00,,,0.00,Wunderground v.1.15,2013-01-06 18:21:00,
2013-01-06 12:24:00,26.8,22.3,30.20,West,271,12.0,16.0,83,0.00,,,0.00,Wunderground v.1.15,2013-01-06 18:24:00,
2013-01-06 12:26:00,26.9,22.7,30.20,WNW,285,12.0,16.0,84,0.00,,,0.00,Wunderground v.1.15,2013-01-06 18:26:00,
2013-01-06 12:28:00,27.2,23.0,30.20,NW,309,12.0,16.0,84,0.00,,,0.00,Wunderground v.1.15,2013-01-06 18:28:00,
2013-01-06 12:30:00,27.3,23.1,30.20,NW,307,12.0,12.0,84,0.00,,,0.00,Wunderground v.1.15,2013-01-06 18:30:00,
2013-01-06 12:32:00,27.4,23.2,30.20,WNW,295,11.0,12.0,84,0.00,,,0.00,Wunderground v.1.15,2013-01-06 18:32:00,
2013-01-06 12:35:00,27.4,22.9,30.20,WNW,300,11.0,13.0,83,0.00,,,0.00,Wunderground v.1.15,2013-01-06 18:35:00,
2013-01-06 12:38:00,27.4,22.9,30.20,WNW,302,12.0,13.0,83,0.00,,,0.00,Wunderground v.1.15,2013-01-06 18:38:00,
2013-01-06 12:42:00,27.5,23.0,30.20,WNW,295,12.0,14.0,83,0.00,,,0.00,Wunderground v.1.15,2013-01-06 18:42:00,
2013-01-06 12:44:00,27.6,23.1,30.20,WNW,283,12.0,14.0,83,0.00,,,0.00,Wunderground v.1.15,2013-01-06 18:44:00,
2013-01-06 12:48:00,27.5,22.7,30.20,West,271,12.0,15.0,82,0.00,,,0.00,Wunderground v.1.15,2013-01-06 18:48:00,
2013-01-06 12:54:00,27.7,23.2,30.20,West,278,11.0,12.0,83,0.00,,,0.00,Wunderground v.1.15,2013-01-06 18:54:00,
2013-01-06 12:56:00,27.8,23.6,30.20,WNW,297,11.0,12.0,84,0.00,,,0.00,Wunderground v.1.15,2013-01-06 18:56:00,
2013-01-06 13:02:00,28.0,23.5,30.21,WNW,285,10.0,10.0,83,0.00,,,0.00,Wunderground v.1.15,2013-01-06 19:02:00,
2013-01-06 13:08:00,28.3,23.5,30.21,WNW,287,9.0,10.0,82,0.00,,,0.00,Wunderground v.1.15,2013-01-06 19:08:00,
2013-01-06 13:10:00,28.2,23.4,30.21,West,281,9.0,9.0,82,0.00,,,0.00,Wunderground v.1.15,2013-01-06 19:10:00,
2013-01-06 13:14:00,28.3,23.5,30.21,West,277,9.0,11.0,82,0.00,,,0.00,Wunderground v.1.15,2013-01-06 19:14:00,
2013-01-06 13:18:00,28.2,23.4,30.20,WSW,250,9.0,11.0,82,0.00,,,0.00,Wunderground v.1.15,2013-01-06 19:18:00,
2013-01-06 13:20:00,28.3,23.5,30.20,WNW,285,9.0,9.0,82,0.00,,,0.00,Wunderground v.1.15,2013-01-06 19:20:00,
2013-01-06 13:22:00,28.4,23.9,30.20,WNW,283,9.0,9.0,83,0.00,,,0.00,Wunderground v.1.15,2013-01-06 19:22:00,
2013-01-06 13:28:00,28.9,24.1,30.21,NW,312,7.0,10.0,82,0.00,,,0.00,Wunderground v.1.15,2013-01-06 19:28:00,
2013-01-06 13:30:00,29.0,24.2,30.21,WNW,291,8.0,12.0,82,0.00,,,0.00,Wunderground v.1.15,2013-01-06 19:30:00,
2013-01-06 13:34:00,28.9,23.8,30.22,WNW,298,10.0,12.0,81,0.00,,,0.00,Wunderground v.1.15,2013-01-06 19:34:00,
2013-01-06 13:36:00,28.9,24.1,30.22,WNW,288,10.0,12.0,82,0.00,,,0.00,Wunderground v.1.15,2013-01-06 19:36:00,
2013-01-06 13:38:00,29.0,24.2,30.22,West,261,11.0,12.0,82,0.00,,,0.00,Wunderground v.1.15,2013-01-06 19:38:00,
2013-01-06 13:42:00,29.2,24.4,30.22,WNW,298,11.0,14.0,82,0.00,,,0.00,Wunderground v.1.15,2013-01-06 19:42:00,
2013-01-06 13:48:00,29.7,24.9,30.22,WNW,302,11.0,14.0,82,0.00,,,0.00,Wunderground v.1.15,2013-01-06 19:48:00,
2013-01-06 13:49:00,29.8,25.0,30.22,West,280,11.0,11.0,82,0.00,,,0.00,Wunderground v.1.15,2013-01-06 19:49:00,
2013-01-06 13:54:00,29.7,24.6,30.23,West,268,11.0,12.0,81,0.00,,,0.00,Wunderground v.1.15,2013-01-06 19:54:00,
2013-01-06 13:58:00,29.7,24.6,30.23,West,280,11.0,12.0,81,0.00,,,0.00,Wunderground v.1.15,2013-01-06 19:58:00,
2013-01-06 14:02:00,29.2,24.1,30.23,NW,306,11.0,12.0,81,0.00,,,0.00,Wunderground v.1.15,2013-01-06 20:02:00,
2013-01-06 14:04:00,29.2,24.4,30.23,WNW,285,11.0,13.0,82,0.00,,,0.00,Wunderground v.1.15,2013-01-06 20:04:00,
2013-01-06 14:08:00,29.7,24.9,30.23,West,276,10.0,13.0,82,0.00,,,0.00,Wunderground v.1.15,2013-01-06 20:08:00,
2013-01-06 14:10:00,29.7,24.6,30.23,NW,314,9.0,11.0,81,0.00,,,0.00,Wunderground v.1.15,2013-01-06 20:10:00,
2013-01-06 14:14:00,29.4,24.0,30.23,West,278,9.0,12.0,80,0.00,,,0.00,Wunderground v.1.15,2013-01-06 20:14:00,
2013-01-06 14:18:00,29.3,24.2,30.24,West,267,9.0,12.0,81,0.00,,,0.00,Wunderground v.1.15,2013-01-06 20:18:00,
2013-01-06 14:20:00,29.4,24.3,30.24,NW,310,9.0,11.0,81,0.00,,,0.00,Wunderground v.1.15,2013-01-06 20:20:00,
2013-01-06 14:22:00,29.2,23.8,30.24,West,278,9.0,11.0,80,0.00,,,0.00,Wunderground v.1.15,2013-01-06 20:22:00,
2013-01-06 14:25:00,29.0,23.9,30.24,West,281,9.0,12.0,81,0.00,,,0.00,Wunderground v.1.15,2013-01-06 20:25:00,
2013-01-06 14:28:00,29.0,23.9,30.24,WNW,300,9.0,12.0,81,0.00,,,0.00,Wunderground v.1.15,2013-01-06 20:28:00,
2013-01-06 14:30:00,28.9,23.8,30.24,WNW,300,9.0,9.0,81,0.00,,,0.00,Wunderground v.1.15,2013-01-06 20:30:00,
2013-01-06 14:32:00,28.9,23.8,30.24,West,278,9.0,10.0,81,0.00,,,0.00,Wunderground v.1.15,2013-01-06 20:32:00,
2013-01-06 14:38:00,29.0,24.5,30.24,West,274,7.0,10.0,83,0.00,,,0.00,Wunderground v.1.15,2013-01-06 20:38:00,
2013-01-06 14:40:00,28.8,23.7,30.24,WNW,290,7.0,7.0,81,0.00,,,0.00,Wunderground v.1.15,2013-01-06 20:40:00,
2013-01-06 14:46:00,28.9,23.8,30.24,WNW,288,6.0,9.0,81,0.00,,,0.00,Wunderground v.1.15,2013-01-06 20:46:00,
2013-01-06 14:52:00,29.0,24.2,30.24,WNW,287,7.0,7.0,82,0.00,,,0.00,Wunderground v.1.15,2013-01-06 20:52:00,
2013-01-06 14:54:00,29.1,24.0,30.24,WNW,291,7.0,9.0,81,0.00,,,0.00,Wunderground v.1.15,2013-01-06 20:54:00,
2013-01-06 14:56:00,29.0,23.9,30.24,WNW,290,7.0,9.0,81,0.00,,,0.00,Wunderground v.1.15,2013-01-06 20:56:00,
2013-01-06 15:00:00,29.0,24.2,30.25,WSW,238,7.0,7.0,82,0.00,,,0.00,Wunderground v.1.15,2013-01-06 21:00:00,
2013-01-06 15:02:00,29.0,24.5,30.25,NW,316,7.0,7.0,83,0.00,,,0.00,Wunderground v.1.15,2013-01-06 21:02:00,
2013-01-06 15:03:00,29.0,24.2,30.25,WNW,285,7.0,7.0,82,0.00,,,0.00,Wunderground v.1.15,2013-01-06 21:03:00,
2013-01-06 15:05:00,28.7,23.9,30.25,WSW,249,7.0,11.0,82,0.00,,,0.00,Wunderground v.1.15,2013-01-06 21:05:00,
2013-01-06 15:10:00,28.5,24.3,30.26,WSW,241,6.0,11.0,84,0.00,,,0.00,Wunderground v.1.15,2013-01-06 21:10:00,
2013-01-06 15:12:00,28.3,24.1,30.26,SW,222,7.0,11.0,84,0.00,,,0.00,Wunderground v.1.15,2013-01-06 21:12:00,
2013-01-06 15:14:00,28.1,23.9,30.26,West,270,7.0,11.0,84,0.00,,,0.00,Wunderground v.1.15,2013-01-06 21:14:00,
2013-01-06 15:20:00,28.1,23.9,30.26,SSW,204,8.0,8.0,84,0.00,,,0.00,Wunderground v.1.15,2013-01-06 21:20:00,
2013-01-06 15:22:00,28.0,23.8,30.26,WSW,239,8.0,8.0,84,0.00,,,0.00,Wunderground v.1.15,2013-01-06 21:22:00,
2013-01-06 15:26:00,27.7,23.5,30.27,WSW,237,9.0,11.0,84,0.00,,,0.00,Wunderground v.1.15,2013-01-06 21:26:00,
2013-01-06 15:28:00,27.4,23.2,30.27,West,263,9.0,11.0,84,0.00,,,0.00,Wunderground v.1.15,2013-01-06 21:28:00,
2013-01-06 15:30:00,27.3,23.4,30.27,WSW,249,9.0,9.0,85,0.00,,,0.00,Wunderground v.1.15,2013-01-06 21:30:00,
2013-01-06 15:36:00,27.1,23.5,30.27,SW,236,9.0,11.0,86,0.00,,,0.00,Wunderground v.1.15,2013-01-06 21:36:00,
2013-01-06 15:38:00,27.1,23.5,30.27,WSW,252,8.0,11.0,86,0.00,,,0.00,Wunderground v.1.15,2013-01-06 21:38:00,
2013-01-06 15:44:00,26.9,23.3,30.27,WNW,285,8.0,9.0,86,0.00,,,0.00,Wunderground v.1.15,2013-01-06 21:44:00,
2013-01-06 15:46:00,26.7,23.1,30.28,WSW,246,9.0,10.0,86,0.00,,,0.00,Wunderground v.1.15,2013-01-06 21:46:00,
2013-01-06 15:50:00,26.3,23.0,30.28,NW,306,8.0,8.0,87,0.00,,,0.00,Wunderground v.1.15,2013-01-06 21:50:00,
2013-01-06 15:52:00,26.2,22.9,30.28,West,264,8.0,8.0,87,0.00,,,0.00,Wunderground v.1.15,2013-01-06 21:52:00,
2013-01-06 15:54:00,26.1,22.8,30.28,WSW,252,8.0,8.0,87,0.00,,,0.00,Wunderground v.1.15,2013-01-06 21:54:00,
2013-01-06 15:58:00,25.8,22.7,30.28,West,280,9.0,9.0,88,0.00,,,0.00,Wunderground v.1.15,2013-01-06 21:58:00,
2013-01-06 16:00:00,25.9,22.8,30.28,WSW,248,8.0,8.0,88,0.00,,,0.00,Wunderground v.1.15,2013-01-06 22:00:00,
2013-01-06 16:04:00,25.8,22.7,30.28,West,278,8.0,8.0,88,0.00,,,0.00,Wunderground v.1.15,2013-01-06 22:04:00,
2013-01-06 16:08:00,25.6,22.5,30.29,West,271,7.0,12.0,88,0.00,,,0.00,Wunderground v.1.15,2013-01-06 22:08:00,
2013-01-06 16:10:00,25.5,22.4,30.29,WSW,240,6.0,7.0,88,0.00,,,0.00,Wunderground v.1.15,2013-01-06 22:10:00,
2013-01-06 16:16:00,25.1,22.0,30.29,WSW,242,6.0,8.0,88,0.00,,,0.00,Wunderground v.1.15,2013-01-06 22:16:00,
2013-01-06 16:18:00,25.0,21.9,30.29,West,264,6.0,8.0,88,0.00,,,0.00,Wunderground v.1.15,2013-01-06 22:18:00,
2013-01-06 16:20:00,24.9,22.1,30.29,NW,317,6.0,6.0,89,0.00,,,0.00,Wunderground v.1.15,2013-01-06 22:20:00,
2013-01-06 16:22:00,24.8,22.0,30.29,West,262,6.0,7.0,89,0.00,,,0.00,Wunderground v.1.15,2013-01-06 22:22:00,
2013-01-06 16:26:00,24.8,22.0,30.29,WSW,253,5.0,7.0,89,0.00,,,0.00,Wunderground v.1.15,2013-01-06 22:26:00,
2013-01-06 16:28:00,24.8,22.0,30.29,WNW,290,4.0,7.0,89,0.00,,,0.00,Wunderground v.1.15,2013-01-06 22:28:00,
2013-01-06 16:30:00,24.8,22.0,30.29,WSW,246,4.0,7.0,89,0.00,,,0.00,Wunderground v.1.15,2013-01-06 22:30:00,
2013-01-06 16:32:00,24.7,21.9,30.30,WNW,293,4.0,7.0,89,0.00,,,0.00,Wunderground v.1.15,2013-01-06 22:32:00,
2013-01-06 16:33:00,24.7,21.9,30.30,NW,304,4.0,7.0,89,0.00,,,0.00,Wunderground v.1.15,2013-01-06 22:33:00,
2013-01-06 16:38:00,24.4,21.6,30.30,SW,232,4.0,7.0,89,0.00,,,0.00,Wunderground v.1.15,2013-01-06 22:38:00,
2013-01-06 16:40:00,24.4,21.6,30.30,WSW,245,4.0,7.0,89,0.00,,,0.00,Wunderground v.1.15,2013-01-06 22:40:00,
2013-01-06 16:46:00,24.2,21.4,30.30,West,281,4.0,7.0,89,0.00,,,0.00,Wunderground v.1.15,2013-01-06 22:46:00,
2013-01-06 16:48:00,24.2,21.4,30.30,West,275,4.0,7.0,89,0.00,,,0.00,Wunderground v.1.15,2013-01-06 22:48:00,
2013-01-06 16:52:00,24.0,21.2,30.29,WNW,285,4.0,7.0,89,0.00,,,0.00,Wunderground v.1.15,2013-01-06 22:52:00,
2013-01-06 16:54:00,24.0,21.2,30.30,West,279,4.0,7.0,89,0.00,,,0.00,Wunderground v.1.15,2013-01-06 22:54:00,
2013-01-06 16:58:00,23.7,21.2,30.30,West,281,3.0,7.0,90,0.00,,,0.00,Wunderground v.1.15,2013-01-06 22:58:00,
2013-01-06 17:00:00,23.6,21.1,30.30,WNW,282,3.0,7.0,90,0.00,,,0.00,Wunderground v.1.15,2013-01-06 23:00:00,
2013-01-06 17:04:00,23.4,20.9,30.30,WSW,242,3.0,7.0,90,0.00,,,0.00,Wunderground v.1.15,2013-01-06 23:04:00,
2013-01-06 17:06:00,23.4,20.9,30.30,WNW,282,3.0,7.0,90,0.00,,,0.00,Wunderground v.1.15,2013-01-06 23:06:00,
2013-01-06 17:10:00,23.3,20.8,30.30,WNW,293,3.0,7.0,90,0.00,,,0.00,Wunderground v.1.15,2013-01-06 23:10:00,
2013-01-06 17:16:00,23.1,20.6,30.31,WNW,283,4.0,7.0,90,0.00,,,0.00,Wunderground v.1.15,2013-01-06 23:16:00,
2013-01-06 17:20:00,22.9,20.4,30.31,West,278,3.0,7.0,90,0.00,,,0.00,Wunderground v.1.15,2013-01-06 23:20:00,
2013-01-06 17:26:00,22.8,20.6,30.31,West,277,2.0,7.0,91,0.00,,,0.00,Wunderground v.1.15,2013-01-06 23:26:00,
2013-01-06 17:28:00,22.7,20.5,30.31,WSW,250,2.0,7.0,91,0.00,,,0.00,Wunderground v.1.15,2013-01-06 23:28:00,
2013-01-06 17:30:00,22.6,20.4,30.31,SW,221,2.0,7.0,91,0.00,,,0.00,Wunderground v.1.15,2013-01-06 23:30:00,
2013-01-06 17:32:00,22.5,20.3,30.31,West,281,2.0,7.0,91,0.00,,,0.00,Wunderground v.1.15,2013-01-06 23:32:00,
2013-01-06 17:34:00,22.4,20.2,30.31,SW,218,2.0,7.0,91,0.00,,,0.00,Wunderground v.1.15,2013-01-06 23:34:00,
2013-01-06 17:36:00,22.4,20.2,30.31,West,266,2.0,7.0,91,0.00,,,0.00,Wunderground v.1.15,2013-01-06 23:36:00,
2013-01-06 17:38:00,22.4,20.2,30.31,SW,225,2.0,7.0,91,0.00,,,0.00,Wunderground v.1.15,2013-01-06 23:38:00,
2013-01-06 17:40:00,22.3,20.1,30.32,WSW,240,2.0,7.0,91,0.00,,,0.00,Wunderground v.1.15,2013-01-06 23:40:00,
2013-01-06 17:42:00,22.3,20.1,30.32,WSW,256,2.0,7.0,91,0.00,,,0.00,Wunderground v.1.15,2013-01-06 23:42:00,
2013-01-06 17:46:00,22.2,20.0,30.32,WSW,248,2.0,7.0,91,0.00,,,0.00,Wunderground v.1.15,2013-01-06 23:46:00,
2013-01-06 17:48:00,22.1,19.9,30.32,West,269,2.0,7.0,91,0.00,,,0.00,Wunderground v.1.15,2013-01-06 23:48:00,
2013-01-06 17:50:00,22.1,19.9,30.32,West,271,2.0,2.0,91,0.00,,,0.00,Wunderground v.1.15,2013-01-06 23:50:00,
2013-01-06 17:52:00,22.1,19.9,30.32,West,271,1.0,7.0,91,0.00,,,0.00,Wunderground v.1.15,2013-01-06 23:52:00,
2013-01-06 17:56:00,22.0,19.8,30.32,West,278,2.0,7.0,91,0.00,,,0.00,Wunderground v.1.15,2013-01-06 23:56:00,
2013-01-06 17:58:00,21.9,19.7,30.32,West,278,2.0,7.0,91,0.00,,,0.00,Wunderground v.1.15,2013-01-06 23:58:00,
2013-01-06 18:02:00,21.8,19.6,30.32,West,270,2.0,7.0,91,0.00,,,0.00,Wunderground v.1.15,2013-01-07 00:02:00,
2013-01-06 18:08:00,21.6,19.4,30.32,WSW,257,2.0,7.0,91,0.00,,,0.00,Wunderground v.1.15,2013-01-07 00:08:00,
2013-01-06 18:10:00,21.6,19.4,30.32,WSW,252,2.0,2.0,91,0.00,,,0.00,Wunderground v.1.15,2013-01-07 00:10:00,
2013-01-06 18:12:00,21.6,19.4,30.32,West,270,1.0,7.0,91,0.00,,,0.00,Wunderground v.1.15,2013-01-07 00:12:00,
2013-01-06 18:16:00,21.4,19.2,30.33,West,271,1.0,7.0,91,0.00,,,0.00,Wunderground v.1.15,2013-01-07 00:16:00,
2013-01-06 18:18:00,21.3,18.8,30.33,West,278,1.0,7.0,90,0.00,,,0.00,Wunderground v.1.15,2013-01-07 00:18:00,
2013-01-06 18:20:00,21.2,19.0,30.33,West,271,2.0,2.0,91,0.00,,,0.00,Wunderground v.1.15,2013-01-07 00:20:00,
2013-01-06 18:21:00,21.1,18.9,30.33,SSW,212,2.0,7.0,91,0.00,,,0.00,Wunderground v.1.15,2013-01-07 00:21:00,
2013-01-06 18:28:00,20.9,18.7,30.33,WSW,252,2.0,7.0,91,0.00,,,0.00,Wunderground v.1.15,2013-01-07 00:28:00,
2013-01-06 18:30:00,20.8,18.6,30.33,SW,232,2.0,2.0,91,0.00,,,0.00,Wunderground v.1.15,2013-01-07 00:30:00,
2013-01-06 18:32:00,20.7,18.5,30.33,SSW,200,2.0,7.0,91,0.00,,,0.00,Wunderground v.1.15,2013-01-07 00:32:00,
2013-01-06 18:36:00,20.5,18.3,30.33,WSW,239,1.0,7.0,91,0.00,,,0.00,Wunderground v.1.15,2013-01-07 00:36:00,
2013-01-06 18:38:00,20.4,18.2,30.33,WSW,249,1.0,7.0,91,0.00,,,0.00,Wunderground v.1.15,2013-01-07 00:38:00,
2013-01-06 18:42:00,20.3,18.1,30.33,SW,217,1.0,7.0,91,0.00,,,0.00,Wunderground v.1.15,2013-01-07 00:42:00,
2013-01-06 18:48:00,20.0,17.8,30.33,SW,222,1.0,7.0,91,0.00,,,0.00,Wunderground v.1.15,2013-01-07 00:48:00,
2013-01-06 18:50:00,19.9,17.7,30.34,SW,236,1.0,7.0,91,0.00,,,0.00,Wunderground v.1.15,2013-01-07 00:50:00,
2013-01-06 18:54:00,19.8,17.9,30.34,WSW,246,1.0,7.0,92,0.00,,,0.00,Wunderground v.1.15,2013-01-07 00:54:00,
2013-01-06 18:56:00,19.7,17.5,30.33,WSW,242,1.0,7.0,91,0.00,,,0.00,Wunderground v.1.15,2013-01-07 00:56:00,
2013-01-06 19:02:00,19.6,17.7,30.34,WSW,238,1.0,7.0,92,0.00,,,0.00,Wunderground v.1.15,2013-01-07 01:02:00,
2013-01-06 19:04:00,19.6,17.7,30.34,WSW,239,1.0,7.0,92,0.00,,,0.00,Wunderground v.1.15,2013-01-07 01:04:00,
2013-01-06 19:08:00,19.4,17.5,30.34,SW,231,1.0,7.0,92,0.00,,,0.00,Wunderground v.1.15,2013-01-07 01:08:00,
2013-01-06 19:12:00,19.1,17.2,30.34,West,266,2.0,3.0,92,0.00,,,0.00,Wunderground v.1.15,2013-01-07 01:12:00,
2013-01-06 19:14:00,19.1,17.2,30.34,WSW,248,2.0,5.0,92,0.00,,,0.00,Wunderground v.1.15,2013-01-07 01:14:00,
2013-01-06 19:15:00,19.3,17.6,30.34,SW,224,3.0,7.0,93,0.00,,,0.00,Wunderground v.1.15,2013-01-07 01:15:00,
2013-01-06 19:18:00,19.6,17.9,30.34,SW,229,3.0,7.0,93,0.00,,,0.00,Wunderground v.1.15,2013-01-07 01:18:00,
2013-01-06 19:22:00,19.8,17.9,30.34,SW,235,3.0,7.0,92,0.00,,,0.00,Wunderground v.1.15,2013-01-07 01:22:00,
2013-01-06 19:24:00,19.7,17.5,30.34,SSW,212,3.0,7.0,91,0.00,,,0.00,Wunderground v.1.15,2013-01-07 01:24:00,
2013-01-06 19:28:00,19.1,16.7,30.34,WSW,238,3.0,7.0,90,0.00,,,0.00,Wunderground v.1.15,2013-01-07 01:28:00,
2013-01-06 19:32:00,18.8,16.6,30.34,SW,231,2.0,7.0,91,0.00,,,0.00,Wunderground v.1.15,2013-01-07 01:32:00,
2013-01-06 19:38:00,18.5,16.3,30.34,WSW,255,1.0,7.0,91,0.00,,,0.00,Wunderground v.1.15,2013-01-07 01:38:00,
2013-01-06 19:40:00,18.5,16.3,30.34,SW,217,1.0,7.0,91,0.00,,,0.00,Wunderground v.1.15,2013-01-07 01:40:00,
2013-01-06 19:42:00,18.5,16.6,30.34,SW,225,1.0,7.0,92,0.00,,,0.00,Wunderground v.1.15,2013-01-07 01:42:00,
2013-01-06 19:44:00,18.5,16.6,30.34,SW,233,2.0,7.0,92,0.00,,,0.00,Wunderground v.1.15,2013-01-07 01:44:00,
2013-01-06 19:48:00,18.4,16.5,30.34,SW,222,2.0,7.0,92,0.00,,,0.00,Wunderground v.1.15,2013-01-07 01:48:00,
2013-01-06 19:52:00,18.2,16.0,30.35,WSW,245,2.0,7.0,91,0.00,,,0.00,Wunderground v.1.15,2013-01-07 01:52:00,
2013-01-06 19:58:00,18.1,16.2,30.35,WSW,248,2.0,7.0,92,0.00,,,0.00,Wunderground v.1.15,2013-01-07 01:58:00,
2013-01-06 20:02:00,18.1,16.2,30.35,WSW,242,3.0,7.0,92,0.00,,,0.00,Wunderground v.1.15,2013-01-07 02:02:00,
2013-01-06 20:04:00,18.2,16.3,30.35,WSW,252,3.0,7.0,92,0.00,,,0.00,Wunderground v.1.15,2013-01-07 02:04:00,
2013-01-06 20:08:00,18.2,16.0,30.35,SW,225,3.0,7.0,91,0.00,,,0.00,Wunderground v.1.15,2013-01-07 02:08:00,
2013-01-06 20:10:00,18.1,15.9,30.35,West,273,3.0,3.0,91,0.00,,,0.00,Wunderground v.1.15,2013-01-07 02:10:00,
2013-01-06 20:13:00,18.1,15.9,30.34,SW,228,3.0,7.0,91,0.00,,,0.00,Wunderground v.1.15,2013-01-07 02:13:00,
2013-01-06 20:16:00,18.1,15.9,30.35,SW,228,2.0,7.0,91,0.00,,,0.00,Wunderground v.1.15,2013-01-07 02:16:00,
2013-01-06 20:20:00,18.1,15.7,30.35,SW,229,2.0,7.0,90,0.00,,,0.00,Wunderground v.1.15,2013-01-07 02:20:00,
2013-01-06 20:22:00,18.0,15.6,30.35,WSW,242,2.0,7.0,90,0.00,,,0.00,Wunderground v.1.15,2013-01-07 02:22:00,
2013-01-06 20:24:00,17.9,15.5,30.34,WSW,244,2.0,7.0,90,0.00,,,0.00,Wunderground v.1.15,2013-01-07 02:24:00,
2013-01-06 20:28:00,18.2,15.8,30.35,SW,233,2.0,7.0,90,0.00,,,0.00,Wunderground v.1.15,2013-01-07 02:28:00,
2013-01-06 20:30:00,18.2,15.8,30.35,SW,231,2.0,2.0,90,0.00,,,0.00,Wunderground v.1.15,2013-01-07 02:30:00,
2013-01-06 20:34:00,18.1,15.4,30.35,WSW,255,2.0,7.0,89,0.00,,,0.00,Wunderground v.1.15,2013-01-07 02:34:00,
2013-01-06 20:35:00,17.9,15.2,30.35,WSW,238,2.0,7.0,89,0.00,,,0.00,Wunderground v.1.15,2013-01-07 02:35:00,
2013-01-06 20:40:00,17.7,15.0,30.34,WSW,246,2.0,7.0,89,0.00,,,0.00,Wunderground v.1.15,2013-01-07 02:40:00,
2013-01-06 20:44:00,17.5,14.8,30.34,SW,224,2.0,7.0,89,0.00,,,0.00,Wunderground v.1.15,2013-01-07 02:44:00,
2013-01-06 20:48:00,17.7,15.3,30.34,WSW,248,2.0,7.0,90,0.00,,,0.00,Wunderground v.1.15,2013-01-07 02:48:00,
2013-01-06 20:49:00,17.7,15.3,30.34,SSW,197,3.0,7.0,90,0.00,,,0.00,Wunderground v.1.15,2013-01-07 02:49:00,
2013-01-06 20:51:00,17.7,15.3,30.34,SW,236,3.0,7.0,90,0.00,,,0.00,Wunderground v.1.15,2013-01-07 02:51:00,
2013-01-06 20:56:00,17.5,14.6,30.34,WSW,257,2.0,7.0,88,0.00,,,0.00,Wunderground v.1.15,2013-01-07 02:56:00,
2013-01-06 20:58:00,17.4,14.7,30.34,SW,214,2.0,7.0,89,0.00,,,0.00,Wunderground v.1.15,2013-01-07 02:58:00,
2013-01-06 21:04:00,17.1,14.4,30.35,SW,219,1.0,7.0,89,0.00,,,0.00,Wunderground v.1.15,2013-01-07 03:04:00,
2013-01-06 21:06:00,17.0,14.3,30.35,SW,218,1.0,7.0,89,0.00,,,0.00,Wunderground v.1.15,2013-01-07 03:06:00,
2013-01-06 21:08:00,17.0,14.3,30.35,SW,232,1.0,7.0,89,0.00,,,0.00,Wunderground v.1.15,2013-01-07 03:08:00,
2013-01-06 21:13:00,16.9,14.5,30.35,SSW,194,1.0,7.0,90,0.00,,,0.00,Wunderground v.1.15,2013-01-07 03:13:00,
2013-01-06 21:16:00,16.9,14.2,30.35,SSW,201,1.0,7.0,89,0.00,,,0.00,Wunderground v.1.15,2013-01-07 03:16:00,
2013-01-06 21:18:00,16.8,14.1,30.35,SSW,205,1.0,7.0,89,0.00,,,0.00,Wunderground v.1.15,2013-01-07 03:18:00,
2013-01-06 21:22:00,16.7,14.3,30.35,WSW,250,1.0,7.0,90,0.00,,,0.00,Wunderground v.1.15,2013-01-07 03:22:00,
2013-01-06 21:24:00,16.7,14.3,30.35,WSW,239,1.0,7.0,90,0.00,,,0.00,Wunderground v.1.15,2013-01-07 03:24:00,
2013-01-06 21:28:00,16.8,14.4,30.35,WSW,244,1.0,7.0,90,0.00,,,0.00,Wunderground v.1.15,2013-01-07 03:28:00,
2013-01-06 21:30:00,16.8,14.4,30.35,SW,224,2.0,2.0,90,0.00,,,0.00,Wunderground v.1.15,2013-01-07 03:30:00,
2013-01-06 21:36:00,17.0,14.8,30.35,WSW,245,2.0,7.0,91,0.00,,,0.00,Wunderground v.1.15,2013-01-07 03:36:00,
2013-01-06 21:38:00,17.0,14.8,30.35,SW,228,1.0,7.0,91,0.00,,,0.00,Wunderground v.1.15,2013-01-07 03:38:00,
2013-01-06 21:42:00,17.2,15.0,30.36,WSW,240,2.0,7.0,91,0.00,,,0.00,Wunderground v.1.15,2013-01-07 03:42:00,
2013-01-06 21:44:00,17.3,15.1,30.36,SW,226,2.0,7.0,91,0.00,,,0.00,Wunderground v.1.15,2013-01-07 03:44:00,
2013-01-06 21:48:00,17.4,15.2,30.36,SW,231,2.0,7.0,91,0.00,,,0.00,Wunderground v.1.15,2013-01-07 03:48:00,
2013-01-06 21:50:00,17.3,14.9,30.36,WSW,239,2.0,2.0,90,0.00,,,0.00,Wunderground v.1.15,2013-01-07 03:50:00,
2013-01-06 21:52:00,17.2,14.8,30.36,WSW,239,2.0,7.0,90,0.00,,,0.00,Wunderground v.1.15,2013-01-07 03:52:00,
2013-01-06 21:54:00,17.1,14.7,30.35,SSW,198,1.0,7.0,90,0.00,,,0.00,Wunderground v.1.15,2013-01-07 03:54:00,
2013-01-06 21:58:00,17.0,14.6,30.35,SSW,200,1.0,7.0,90,0.00,,,0.00,Wunderground v.1.15,2013-01-07 03:58:00,
2013-01-06 22:00:00,16.9,14.7,30.35,SSW,200,1.0,1.0,91,0.00,,,0.00,Wunderground v.1.15,2013-01-07 04:00:00,
2013-01-06 22:04:00,16.8,14.6,30.35,SSW,202,1.0,7.0,91,0.00,,,0.00,Wunderground v.1.15,2013-01-07 04:04:00,
2013-01-06 22:06:00,16.8,14.6,30.35,SW,219,1.0,7.0,91,0.00,,,0.00,Wunderground v.1.15,2013-01-07 04:06:00,
2013-01-06 22:10:00,16.8,14.6,30.35,SSW,201,1.0,7.0,91,0.00,,,0.00,Wunderground v.1.15,2013-01-07 04:10:00,
2013-01-06 22:12:00,16.7,14.5,30.35,SSW,197,1.0,7.0,91,0.00,,,0.00,Wunderground v.1.15,2013-01-07 04:12:00,
2013-01-06 22:14:00,16.6,14.4,30.35,WSW,245,1.0,7.0,91,0.00,,,0.00,Wunderground v.1.15,2013-01-07 04:14:00,
2013-01-06 22:18:00,16.7,14.8,30.35,SW,228,1.0,7.0,92,0.00,,,0.00,Wunderground v.1.15,2013-01-07 04:18:00,
2013-01-06 22:20:00,16.8,14.9,30.35,SW,231,1.0,7.0,92,0.00,,,0.00,Wunderground v.1.15,2013-01-07 04:20:00,
2013-01-06 22:22:00,16.9,15.0,30.36,SW,224,2.0,7.0,92,0.00,,,0.00,Wunderground v.1.15,2013-01-07 04:22:00,
2013-01-06 22:23:00,16.9,15.0,30.36,SW,219,2.0,7.0,92,0.00,,,0.00,Wunderground v.1.15,2013-01-07 04:23:00,
2013-01-06 22:28:00,17.0,14.8,30.36,SW,231,2.0,7.0,91,0.00,,,0.00,Wunderground v.1.15,2013-01-07 04:28:00,
2013-01-06 22:30:00,16.9,14.7,30.36,SW,215,2.0,2.0,91,0.00,,,0.00,Wunderground v.1.15,2013-01-07 04:30:00,
2013-01-06 22:32:00,16.8,14.6,30.36,SW,214,2.0,7.0,91,0.00,,,0.00,Wunderground v.1.15,2013-01-07 04:32:00,
2013-01-06 22:36:00,16.4,14.0,30.36,SW,231,1.0,7.0,90,0.00,,,0.00,Wunderground v.1.15,2013-01-07 04:36:00,
2013-01-06 22:38:00,16.3,13.9,30.36,SW,219,1.0,7.0,90,0.00,,,0.00,Wunderground v.1.15,2013-01-07 04:38:00,
2013-01-06 22:39:00,16.2,14.0,30.36,SW,218,1.0,7.0,91,0.00,,,0.00,Wunderground v.1.15,2013-01-07 04:39:00,
2013-01-06 22:44:00,16.2,14.0,30.35,SW,217,1.0,7.0,91,0.00,,,0.00,Wunderground v.1.15,2013-01-07 04:44:00,
2013-01-06 22:46:00,16.3,14.1,30.36,SW,219,1.0,7.0,91,0.00,,,0.00,Wunderground v.1.15,2013-01-07 04:46:00,
2013-01-06 22:50:00,16.3,14.4,30.35,South,191,1.0,7.0,92,0.00,,,0.00,Wunderground v.1.15,2013-01-07 04:50:00,
2013-01-06 22:52:00,16.2,14.0,30.35,South,184,1.0,7.0,91,0.00,,,0.00,Wunderground v.1.15,2013-01-07 04:52:00,
2013-01-06 22:56:00,16.0,13.8,30.35,South,184,1.0,7.0,91,0.00,,,0.00,Wunderground v.1.15,2013-01-07 04:56:00,
2013-01-06 22:58:00,15.8,13.6,30.35,South,184,0.0,7.0,91,0.00,,,0.00,Wunderground v.1.15,2013-01-07 04:58:00,
2013-01-06 23:02:00,15.8,13.9,30.35,South,184,0.0,7.0,92,0.00,,,0.00,Wunderground v.1.15,2013-01-07 05:02:00,
2013-01-06 23:06:00,15.5,13.3,30.35,SE,127,0.0,7.0,91,0.00,,,0.00,Wunderground v.1.15,2013-01-07 05:06:00,
2013-01-06 23:08:00,15.6,13.7,30.36,SE,127,1.0,7.0,92,0.00,,,0.00,Wunderground v.1.15,2013-01-07 05:08:00,
2013-01-06 23:10:00,15.7,13.8,30.36,SE,127,0.0,7.0,92,0.00,,,0.00,Wunderground v.1.15,2013-01-07 05:10:00,
2013-01-06 23:12:00,15.8,13.9,30.36,SE,127,0.0,7.0,92,0.00,,,0.00,Wunderground v.1.15,2013-01-07 05:12:00,
2013-01-06 23:14:00,15.9,14.2,30.36,SE,127,0.0,7.0,93,0.00,,,0.00,Wunderground v.1.15,2013-01-07 05:14:00,
2013-01-06 23:18:00,16.1,14.4,30.36,SE,127,0.0,7.0,93,0.00,,,0.00,Wunderground v.1.15,2013-01-07 05:18:00,
2013-01-06 23:20:00,16.2,14.5,30.36,SE,127,0.0,7.0,93,0.00,,,0.00,Wunderground v.1.15,2013-01-07 05:20:00,
2013-01-06 23:22:00,16.3,14.6,30.36,SE,127,0.0,7.0,93,0.00,,,0.00,Wunderground v.1.15,2013-01-07 05:22:00,
2013-01-06 23:26:00,16.6,14.9,30.35,SE,127,1.0,7.0,93,0.00,,,0.00,Wunderground v.1.15,2013-01-07 05:26:00,
2013-01-06 23:28:00,16.7,15.0,30.35,SE,127,1.0,7.0,93,0.00,,,0.00,Wunderground v.1.15,2013-01-07 05:28:00,
2013-01-06 23:30:00,16.7,14.8,30.35,SE,127,1.0,1.0,92,0.00,,,0.00,Wunderground v.1.15,2013-01-07 05:30:00,
2013-01-06 23:36:00,16.8,14.9,30.35,SSE,149,0.0,7.0,92,0.00,,,0.00,Wunderground v.1.15,2013-01-07 05:36:00,
2013-01-06 23:40:00,16.9,15.0,30.35,SSE,148,0.0,7.0,92,0.00,,,0.00,Wunderground v.1.15,2013-01-07 05:40:00,
2013-01-06 23:44:00,16.9,15.0,30.36,South,169,0.0,7.0,92,0.00,,,0.00,Wunderground v.1.15,2013-01-07 05:44:00,
2013-01-06 23:46:00,16.9,15.0,30.36,SSE,168,0.0,7.0,92,0.00,,,0.00,Wunderground v.1.15,2013-01-07 05:46:00,
2013-01-06 23:48:00,16.8,14.9,30.35,SSE,168,0.0,7.0,92,0.00,,,0.00,Wunderground v.1.15,2013-01-07 05:48:00,
2013-01-06 23:50:00,16.7,14.8,30.35,SSE,168,0.0,7.0,92,0.00,,,0.00,Wunderground v.1.15,2013-01-07 05:50:00,
2013-01-06 23:52:00,16.5,14.3,30.35,SE,137,0.0,7.0,91,0.00,,,0.00,Wunderground v.1.15,2013-01-07 05:52:00,
2013-01-06 23:54:00,16.4,14.2,30.35,SE,133,1.0,7.0,91,0.00,,,0.00,Wunderground v.1.15,2013-01-07 05:54:00,
2013-01-06 23:58:00,16.2,14.0,30.35,ESE,118,1.0,7.0,91,0.00,,,0.00,Wunderground v.1.15,2013-01-07 05:58:00,